createdAt,value
2023-06-26T00:01:34.986Z,10.05
2023-06-26T00:04:02.195Z,10.55
2023-06-26T00:06:28.836Z,11.05
2023-06-26T00:08:55.884Z,10.88
2023-06-26T00:11:22.841Z,12.63
2023-06-26T00:13:49.217Z,9.25
2023-06-26T00:16:18.120Z,8.80
2023-06-26T00:18:44.491Z,8.65
2023-06-26T00:21:10.872Z,9.13
2023-06-26T00:23:39.959Z,9.45
2023-06-26T00:26:06.838Z,11.80
2023-06-26T00:28:35.684Z,9.40
2023-06-26T00:31:02.091Z,9.65
2023-06-26T00:33:30.956Z,9.65
2023-06-26T00:35:57.333Z,9.32
2023-06-26T00:38:23.714Z,9.55
2023-06-26T00:40:50.098Z,9.23
2023-06-26T00:43:16.490Z,7.63
2023-06-26T00:45:43.824Z,11.20
2023-06-26T00:48:13.987Z,11.88
2023-06-26T00:50:41.535Z,8.90
2023-06-26T00:53:07.984Z,8.88
2023-06-26T00:55:34.356Z,9.68
2023-06-26T00:58:01.145Z,10.85
2023-06-26T01:00:29.955Z,9.95
2023-06-26T01:03:00.197Z,11.65
2023-06-26T01:05:27.992Z,9.77
2023-06-26T01:07:57.996Z,10.75
2023-06-26T01:10:25.024Z,11.05
2023-06-26T01:12:51.582Z,9.27
2023-06-26T01:15:18.070Z,9.35
2023-06-26T01:17:46.347Z,10.65
2023-06-26T01:20:13.232Z,9.77
2023-06-26T01:22:55.133Z,8.90
2023-06-26T01:25:25.322Z,9.88
2023-06-26T01:27:53.754Z,9.02
2023-06-26T01:30:23.529Z,8.80
2023-06-26T01:32:52.573Z,11.45
2023-06-26T01:35:19.157Z,11.25
2023-06-26T01:37:48.457Z,9.45
2023-06-26T01:40:17.099Z,9.52
2023-06-26T01:42:43.845Z,8.77
2023-06-26T01:45:24.366Z,9.65
2023-06-26T01:47:52.456Z,9.05
2023-06-26T01:50:22.560Z,13.25
2023-06-26T01:53:02.773Z,8.40
2023-06-26T01:55:46.632Z,11.05
2023-06-26T01:58:14.506Z,9.88
2023-06-26T02:00:41.446Z,11.00
2023-06-26T02:03:10.456Z,9.80
2023-06-26T02:05:37.008Z,11.85
2023-06-26T02:08:04.014Z,9.82
2023-06-26T02:10:30.919Z,10.82
2023-06-26T02:12:57.410Z,11.93
2023-06-26T02:15:23.823Z,11.32
2023-06-26T02:17:52.501Z,9.50
2023-06-26T02:20:18.950Z,9.15
2023-06-26T02:22:45.407Z,11.15
2023-06-26T02:25:13.331Z,12.40
2023-06-26T02:27:43.467Z,11.40
2023-06-26T02:30:10.155Z,10.30
2023-06-26T02:32:36.664Z,13.38
2023-06-26T02:35:03.225Z,8.52
2023-06-26T02:37:32.193Z,11.68
2023-06-26T02:39:58.587Z,10.43
2023-06-26T02:42:24.988Z,10.75
2023-06-26T02:44:51.427Z,9.02
2023-06-26T02:47:17.902Z,9.80
2023-06-26T02:49:44.317Z,9.30
2023-06-26T02:52:10.700Z,9.95
2023-06-26T02:54:39.461Z,10.52
2023-06-26T02:57:05.852Z,9.40
2023-06-26T02:59:34.749Z,9.32
2023-06-26T03:02:03.675Z,11.38
2023-06-26T03:04:30.147Z,9.50
2023-06-26T03:06:56.599Z,8.75
2023-06-26T03:09:23.073Z,8.80
2023-06-26T03:11:51.974Z,9.00
2023-06-26T03:14:18.375Z,10.20
2023-06-26T03:16:45.088Z,9.63
2023-06-26T03:19:14.040Z,12.18
2023-06-26T03:21:45.320Z,11.10
2023-06-26T03:24:12.047Z,9.70
2023-06-26T03:26:38.426Z,9.40
2023-06-26T03:29:04.826Z,13.20
2023-06-26T03:31:31.234Z,10.20
2023-06-26T03:33:59.801Z,10.30
2023-06-26T03:36:26.197Z,9.93
2023-06-26T03:38:57.740Z,11.07
2023-06-26T03:41:26.394Z,14.13
2023-06-26T03:43:52.837Z,12.68
2023-06-26T03:46:19.327Z,9.98
2023-06-26T03:48:45.729Z,8.90
2023-06-26T03:51:12.161Z,11.05
2023-06-26T03:53:38.591Z,9.40
2023-06-26T03:56:04.999Z,13.07
2023-06-26T03:58:31.369Z,11.32
2023-06-26T04:00:58.925Z,13.93
2023-06-26T04:03:27.908Z,11.27
2023-06-26T04:05:56.680Z,9.40
2023-06-26T04:08:24.499Z,10.23
2023-06-26T04:10:53.251Z,9.25
2023-06-26T04:13:19.620Z,10.10
2023-06-26T04:15:48.162Z,10.35
2023-06-26T04:18:17.052Z,10.25
2023-06-26T04:21:03.399Z,11.95
2023-06-26T04:23:29.859Z,10.25
2023-06-26T04:25:56.865Z,10.18
2023-06-26T04:28:23.256Z,11.23
2023-06-26T04:30:49.663Z,11.38
2023-06-26T04:33:16.542Z,11.80
2023-06-26T04:35:45.643Z,12.52
2023-06-26T04:38:12.373Z,11.27
2023-06-26T04:40:39.042Z,11.43
2023-06-26T04:43:07.981Z,12.23
2023-06-26T04:45:34.438Z,11.05
2023-06-26T04:48:03.533Z,10.45
2023-06-26T04:50:31.260Z,9.07
2023-06-26T04:52:58.370Z,9.05
2023-06-26T04:55:25.253Z,9.95
2023-06-26T04:57:51.843Z,10.75
2023-06-26T05:00:20.918Z,10.32
2023-06-26T05:02:47.541Z,15.05
2023-06-26T05:05:14.735Z,11.13
2023-06-26T05:07:44.538Z,13.23
2023-06-26T05:10:11.103Z,11.30
2023-06-26T05:12:37.644Z,10.90
2023-06-26T05:15:04.297Z,10.27
2023-06-26T05:17:30.741Z,12.30
2023-06-26T05:19:57.158Z,9.30
2023-06-26T05:22:23.832Z,11.95
2023-06-26T05:24:51.238Z,11.00
2023-06-26T05:27:22.816Z,10.40
2023-06-26T05:29:49.862Z,11.07
2023-06-26T05:32:20.200Z,9.98
2023-06-26T05:34:50.379Z,15.27
2023-06-26T05:37:25.097Z,9.75
2023-06-26T05:39:51.630Z,11.90
2023-06-26T05:42:18.487Z,13.65
2023-06-26T05:44:44.883Z,11.02
2023-06-26T05:47:11.396Z,10.52
2023-06-26T05:49:37.810Z,11.52
2023-06-26T05:52:04.406Z,11.23
2023-06-26T05:54:30.888Z,11.32
2023-06-26T05:57:00.247Z,9.20
2023-06-26T05:59:27.763Z,13.93
2023-06-26T06:01:56.656Z,13.27
2023-06-26T06:04:23.059Z,10.63
2023-06-26T06:06:51.966Z,9.85
2023-06-26T06:09:18.487Z,9.55
2023-06-26T06:11:44.997Z,10.02
2023-06-26T06:14:11.432Z,10.80
2023-06-26T06:16:38.417Z,8.30
2023-06-26T06:19:05.541Z,10.45
2023-06-26T06:21:32.008Z,8.35
2023-06-26T06:23:58.435Z,9.10
2023-06-26T06:26:27.232Z,9.07
2023-06-26T06:28:53.605Z,7.57
2023-06-26T06:31:20.093Z,8.32
2023-06-26T06:33:48.935Z,9.10
2023-06-26T06:36:15.363Z,9.32
2023-06-26T06:38:45.012Z,8.95
2023-06-26T06:41:11.769Z,15.13
2023-06-26T06:43:38.218Z,9.77
2023-06-26T06:46:07.194Z,9.40
2023-06-26T06:48:33.558Z,8.32
2023-06-26T06:50:59.944Z,7.80
2023-06-26T06:53:28.732Z,10.38
2023-06-26T06:55:55.130Z,8.88
2023-06-26T06:58:21.644Z,8.52
2023-06-26T07:00:48.513Z,8.18
2023-06-26T07:03:15.078Z,8.05
2023-06-26T07:05:44.666Z,6.95
2023-06-26T07:08:11.322Z,7.95
2023-06-26T07:10:40.198Z,7.90
2023-06-26T07:13:07.708Z,9.00
2023-06-26T07:15:34.096Z,8.65
2023-06-26T07:18:00.694Z,7.25
2023-06-26T07:20:27.107Z,7.10
2023-06-26T07:23:04.030Z,8.50
2023-06-26T07:25:32.816Z,8.18
2023-06-26T07:27:59.263Z,6.70
2023-06-26T07:30:28.026Z,8.43
2023-06-26T07:32:54.456Z,7.55
2023-06-26T07:35:20.883Z,8.70
2023-06-26T07:37:47.347Z,9.15
2023-06-26T07:40:13.952Z,7.60
2023-06-26T07:42:41.529Z,6.50
2023-06-26T07:45:11.975Z,7.20
2023-06-26T07:47:43.062Z,8.70
2023-06-26T07:50:12.046Z,7.00
2023-06-26T07:52:41.002Z,5.82
2023-06-26T07:55:12.345Z,7.80
2023-06-26T07:57:38.803Z,5.90
2023-06-26T08:00:07.954Z,5.72
2023-06-26T08:02:36.913Z,6.40
2023-06-26T08:05:03.623Z,6.22
2023-06-26T08:07:30.240Z,5.10
2023-06-26T08:09:56.762Z,7.75
2023-06-26T08:12:23.200Z,5.70
2023-06-26T08:14:52.017Z,5.93
2023-06-26T08:17:18.419Z,6.95
2023-06-26T08:19:47.207Z,6.90
2023-06-26T08:22:16.212Z,5.32
2023-06-26T08:24:42.629Z,5.32
2023-06-26T08:27:09.125Z,5.18
2023-06-26T08:29:37.942Z,9.65
2023-06-26T08:32:04.488Z,5.30
2023-06-26T08:34:30.925Z,4.80
2023-06-26T08:36:57.306Z,6.55
2023-06-26T08:39:23.749Z,4.95
2023-06-26T08:41:50.170Z,5.97
2023-06-26T08:44:16.602Z,4.53
2023-06-26T08:46:44.123Z,7.35
2023-06-26T08:49:21.974Z,3.97
2023-06-26T08:51:59.660Z,4.00
2023-06-26T08:54:32.050Z,4.22
2023-06-26T08:56:59.108Z,5.55
2023-06-26T08:59:28.373Z,7.60
2023-06-26T09:01:54.921Z,4.88
2023-06-26T09:04:22.222Z,3.83
2023-06-26T09:06:48.683Z,4.40
2023-06-26T09:09:17.650Z,3.95
2023-06-26T09:11:44.102Z,5.65
2023-06-26T09:14:11.354Z,3.45
2023-06-26T09:16:42.926Z,5.03
2023-06-26T09:19:12.779Z,3.20
2023-06-26T09:21:40.288Z,7.72
2023-06-26T09:24:07.873Z,7.18
2023-06-26T09:26:34.934Z,4.57
2023-06-26T09:29:01.404Z,5.57
2023-06-26T09:31:40.395Z,3.92
2023-06-26T09:34:08.881Z,4.35
2023-06-26T09:36:39.856Z,5.30
2023-06-26T09:39:15.694Z,3.97
2023-06-26T09:41:43.409Z,6.32
2023-06-26T09:44:11.480Z,4.00
2023-06-26T09:46:38.934Z,6.30
2023-06-26T09:49:11.925Z,6.35
2023-06-26T09:51:39.126Z,5.22
2023-06-26T09:54:06.720Z,4.15
2023-06-26T09:56:33.912Z,7.25
2023-06-26T09:59:02.309Z,4.05
2023-06-26T10:01:29.472Z,4.20
2023-06-26T10:03:58.999Z,4.97
2023-06-26T10:06:36.917Z,5.35
2023-06-26T10:09:04.761Z,5.32
2023-06-26T10:11:36.013Z,4.00
2023-06-26T10:14:16.148Z,6.20
2023-06-26T10:16:44.313Z,5.88
2023-06-26T10:19:11.759Z,6.22
2023-06-26T10:21:39.778Z,4.45
2023-06-26T10:24:06.636Z,4.95
2023-06-26T10:26:35.515Z,8.60
2023-06-26T10:29:03.409Z,5.15
2023-06-26T10:31:30.072Z,4.68
2023-06-26T10:33:58.410Z,4.70
2023-06-26T10:36:36.271Z,5.53
2023-06-26T10:39:06.420Z,4.60
2023-06-26T10:41:46.435Z,4.85
2023-06-26T10:44:19.827Z,5.35
2023-06-26T10:46:59.377Z,5.13
2023-06-26T10:49:26.887Z,6.72
2023-06-26T10:51:54.906Z,10.93
2023-06-26T10:54:24.190Z,6.00
2023-06-26T10:56:54.512Z,4.88
2023-06-26T10:59:21.903Z,4.78
2023-06-26T11:02:11.070Z,5.10
2023-06-26T11:04:39.638Z,4.85
2023-06-26T11:07:27.431Z,5.47
2023-06-26T11:10:01.360Z,4.75
2023-06-26T11:12:49.028Z,4.88
2023-06-26T11:15:16.397Z,5.30
2023-06-26T11:17:43.749Z,7.97
2023-06-26T11:20:11.783Z,5.72
2023-06-26T11:22:39.644Z,5.10
2023-06-26T11:25:06.832Z,5.82
2023-06-26T11:27:39.613Z,4.40
2023-06-26T11:30:06.925Z,4.53
2023-06-26T11:32:36.435Z,6.25
2023-06-26T11:35:02.929Z,4.28
2023-06-26T11:37:29.379Z,5.32
2023-06-26T11:39:56.110Z,4.85
2023-06-26T11:42:22.684Z,4.85
2023-06-26T11:44:49.097Z,6.20
2023-06-26T11:47:16.479Z,4.85
2023-06-26T11:49:43.434Z,7.38
2023-06-26T11:52:09.931Z,4.22
2023-06-26T11:54:36.353Z,5.72
2023-06-26T11:57:02.996Z,4.03
2023-06-26T11:59:40.643Z,5.47
2023-06-26T12:02:10.622Z,3.92
2023-06-26T12:04:38.547Z,3.53
2023-06-26T12:07:10.028Z,3.55
2023-06-26T12:09:41.462Z,4.38
2023-06-26T12:12:08.379Z,4.85
2023-06-26T12:14:35.442Z,3.88
2023-06-26T12:17:05.848Z,3.50
2023-06-26T12:19:33.083Z,5.38
2023-06-26T12:21:59.564Z,3.70
2023-06-26T12:24:27.062Z,4.25
2023-06-26T12:26:54.999Z,4.03
2023-06-26T12:29:22.378Z,3.85
2023-06-26T12:31:52.613Z,4.53
2023-06-26T12:34:25.294Z,3.85
2023-06-26T12:36:52.352Z,5.05
2023-06-26T12:39:19.891Z,4.90
2023-06-26T12:41:46.264Z,4.18
2023-06-26T12:44:23.222Z,6.07
2023-06-26T12:46:50.610Z,5.00
2023-06-26T12:49:30.624Z,3.78
2023-06-26T12:51:58.111Z,4.20
2023-06-26T12:54:33.726Z,4.50
2023-06-26T12:57:04.904Z,5.45
2023-06-26T12:59:34.380Z,4.45
2023-06-26T13:02:00.949Z,4.72
2023-06-26T13:04:27.508Z,3.63
2023-06-26T13:06:56.336Z,3.40
2023-06-26T13:09:26.110Z,4.72
2023-06-26T13:11:54.895Z,4.00
2023-06-26T13:14:23.764Z,6.72
2023-06-26T13:16:50.177Z,4.38
2023-06-26T13:19:18.982Z,4.63
2023-06-26T13:21:45.450Z,3.75
2023-06-26T13:24:11.970Z,3.97
2023-06-26T13:26:38.764Z,4.40
2023-06-26T13:29:05.686Z,6.13
2023-06-26T13:31:32.632Z,4.20
2023-06-26T13:33:59.883Z,3.60
2023-06-26T13:36:26.369Z,5.03
2023-06-26T13:38:56.577Z,4.07
2023-06-26T13:41:23.889Z,4.45
2023-06-26T13:43:50.354Z,4.47
2023-06-26T13:46:17.945Z,5.03
2023-06-26T13:48:45.130Z,4.07
2023-06-26T13:51:11.561Z,4.45
2023-06-26T13:53:40.863Z,4.70
2023-06-26T13:56:07.412Z,3.40
2023-06-26T13:58:36.186Z,3.90
2023-06-26T14:01:10.511Z,5.45
2023-06-26T14:03:37.040Z,5.90
2023-06-26T14:06:03.594Z,3.63
2023-06-26T14:08:30.057Z,3.90
2023-06-26T14:10:56.468Z,3.90
2023-06-26T14:13:24.208Z,4.45
2023-06-26T14:15:54.009Z,5.38
2023-06-26T14:18:21.900Z,5.07
2023-06-26T14:20:48.333Z,5.35
2023-06-26T14:23:14.741Z,4.40
2023-06-26T14:25:43.659Z,5.50
2023-06-26T14:28:12.514Z,5.38
2023-06-26T14:30:39.093Z,5.80
2023-06-26T14:33:08.199Z,6.03
2023-06-26T14:35:34.772Z,4.93
2023-06-26T14:38:01.174Z,7.85
2023-06-26T14:40:27.631Z,6.50
2023-06-26T14:42:54.733Z,4.03
2023-06-26T14:45:21.453Z,7.28
2023-06-26T14:47:48.307Z,6.95
2023-06-26T14:50:17.240Z,4.72
2023-06-26T14:52:46.161Z,5.40
2023-06-26T14:55:12.590Z,4.10
2023-06-26T14:57:39.023Z,7.10
2023-06-26T15:00:06.737Z,4.90
2023-06-26T15:02:33.283Z,6.28
2023-06-26T15:05:02.061Z,4.70
2023-06-26T15:07:28.602Z,5.20
2023-06-26T15:09:55.103Z,5.68
2023-06-26T15:12:24.574Z,6.95
2023-06-26T15:14:53.593Z,5.85
2023-06-26T15:17:20.062Z,5.20
2023-06-26T15:19:46.556Z,6.30
2023-06-26T15:22:16.189Z,7.20
2023-06-26T15:24:45.417Z,10.10
2023-06-26T15:27:14.244Z,4.53
2023-06-26T15:29:43.030Z,4.68
2023-06-26T15:32:09.494Z,5.63
2023-06-26T15:34:35.940Z,4.75
2023-06-26T15:37:07.418Z,5.28
2023-06-26T15:39:33.885Z,5.10
2023-06-26T15:42:00.321Z,6.40
2023-06-26T15:44:26.772Z,6.22
2023-06-26T15:46:55.736Z,7.82
2023-06-26T15:49:22.361Z,5.25
2023-06-26T15:51:48.832Z,5.53
2023-06-26T15:54:15.282Z,7.45
2023-06-26T15:56:41.828Z,9.32
2023-06-26T15:59:08.282Z,5.00
2023-06-26T16:01:34.768Z,6.13
2023-06-26T16:04:01.328Z,5.57
2023-06-26T16:06:27.714Z,8.52
2023-06-26T16:08:57.669Z,8.88
2023-06-26T16:11:26.626Z,9.00
2023-06-26T16:13:54.426Z,7.22
2023-06-26T16:16:23.715Z,8.25
2023-06-26T16:18:50.428Z,6.68
2023-06-26T16:21:17.161Z,8.27
2023-06-26T16:23:43.641Z,5.43
2023-06-26T16:26:09.997Z,5.90
2023-06-26T16:28:36.364Z,5.18
2023-06-26T16:31:02.774Z,5.38
2023-06-26T16:33:31.679Z,6.35
2023-06-26T16:35:58.064Z,5.80
2023-06-26T16:38:24.455Z,10.60
2023-06-26T16:40:51.190Z,5.93
2023-06-26T16:43:18.439Z,5.82
2023-06-26T16:45:44.908Z,7.68
2023-06-26T16:48:11.328Z,6.85
2023-06-26T16:50:38.291Z,7.75
2023-06-26T16:53:05.889Z,4.78
2023-06-26T16:55:34.595Z,7.15
2023-06-26T16:58:03.937Z,5.93
2023-06-26T17:00:32.796Z,4.97
2023-06-26T17:02:59.517Z,6.93
2023-06-26T17:05:26.819Z,5.90
2023-06-26T17:07:53.222Z,5.38
2023-06-26T17:10:20.102Z,8.10
2023-06-26T17:12:46.590Z,9.32
2023-06-26T17:15:15.447Z,6.97
2023-06-26T17:17:41.940Z,5.68
2023-06-26T17:20:09.959Z,6.07
2023-06-26T17:22:39.358Z,7.13
2023-06-26T17:25:06.742Z,8.23
2023-06-26T17:27:33.401Z,6.95
2023-06-26T17:30:02.140Z,5.97
2023-06-26T17:32:28.677Z,6.97
2023-06-26T17:34:55.448Z,8.75
2023-06-26T17:37:25.219Z,8.40
2023-06-26T17:39:52.525Z,7.10
2023-06-26T17:42:26.410Z,8.52
2023-06-26T17:44:53.198Z,8.93
2023-06-26T17:47:19.604Z,5.50
2023-06-26T17:49:45.986Z,8.07
2023-06-26T17:52:14.573Z,9.10
2023-06-26T17:54:41.045Z,10.85
2023-06-26T17:57:07.653Z,7.85
2023-06-26T17:59:37.003Z,7.30
2023-06-26T18:02:06.766Z,8.32
2023-06-26T18:04:34.358Z,7.88
2023-06-26T18:07:00.943Z,6.03
2023-06-26T18:09:29.907Z,7.45
2023-06-26T18:11:56.657Z,6.88
2023-06-26T18:14:25.519Z,11.82
2023-06-26T18:16:52.079Z,7.20
2023-06-26T18:19:18.527Z,7.03
2023-06-26T18:21:44.927Z,9.15
2023-06-26T18:24:11.425Z,5.82
2023-06-26T18:26:40.364Z,6.25
2023-06-26T18:29:06.828Z,7.45
2023-06-26T18:31:33.315Z,7.22
2023-06-26T18:34:02.238Z,5.20
2023-06-26T18:36:29.902Z,8.43
2023-06-26T18:38:56.318Z,6.85
2023-06-26T18:41:25.270Z,6.07
2023-06-26T18:43:51.808Z,6.40
2023-06-26T18:46:21.827Z,5.50
2023-06-26T18:48:59.918Z,10.18
2023-06-26T18:51:26.324Z,6.80
2023-06-26T18:53:52.736Z,7.90
2023-06-26T18:56:21.825Z,5.60
2023-06-26T18:58:48.195Z,5.25
2023-06-26T19:01:17.169Z,6.63
2023-06-26T19:03:43.653Z,6.32
2023-06-26T19:06:10.082Z,6.28
2023-06-26T19:08:38.884Z,8.20
2023-06-26T19:11:06.860Z,7.65
2023-06-26T19:13:38.230Z,8.50
2023-06-26T19:16:04.773Z,7.85
2023-06-26T19:18:31.455Z,6.00
2023-06-26T19:20:57.941Z,7.07
2023-06-26T19:23:26.636Z,7.05
2023-06-26T19:25:53.045Z,9.30
2023-06-26T19:28:22.061Z,8.45
2023-06-26T19:30:48.497Z,10.23
2023-06-26T19:33:17.074Z,9.15
2023-06-26T19:35:43.640Z,9.63
2023-06-26T19:38:10.154Z,6.82
2023-06-26T19:40:37.464Z,6.15
2023-06-26T19:43:04.839Z,11.32
2023-06-26T19:45:31.599Z,8.63
2023-06-26T19:47:58.241Z,16.58
2023-06-26T19:50:24.699Z,7.72
2023-06-26T19:52:51.517Z,8.30
2023-06-26T19:55:18.161Z,7.38
2023-06-26T19:57:47.658Z,7.88
2023-06-26T20:00:19.627Z,7.95
2023-06-26T20:02:46.336Z,6.57
2023-06-26T20:05:15.394Z,5.53
2023-06-26T20:07:44.431Z,8.77
2023-06-26T20:10:10.963Z,7.00
2023-06-26T20:12:37.397Z,6.20
2023-06-26T20:15:04.079Z,8.80
2023-06-26T20:17:33.130Z,11.30
2023-06-26T20:20:02.001Z,12.23
2023-06-26T20:22:28.423Z,6.93
2023-06-26T20:24:54.863Z,10.18
2023-06-26T20:27:21.536Z,10.43
2023-06-26T20:29:47.947Z,6.18
2023-06-26T20:32:14.363Z,5.28
2023-06-26T20:34:41.552Z,6.93
2023-06-26T20:37:10.487Z,8.18
2023-06-26T20:39:37.213Z,7.03
2023-06-26T20:42:03.856Z,12.07
2023-06-26T20:44:30.906Z,8.13
2023-06-26T20:46:59.716Z,8.00
2023-06-26T20:49:27.759Z,10.70
2023-06-26T20:51:58.260Z,6.05
2023-06-26T20:54:29.705Z,7.68
2023-06-26T20:56:58.968Z,8.30
2023-06-26T20:59:27.537Z,5.95
2023-06-26T21:01:54.072Z,6.13
2023-06-26T21:04:22.696Z,6.50
2023-06-26T21:06:49.217Z,7.43
2023-06-26T21:09:15.843Z,11.88
2023-06-26T21:11:42.240Z,6.97
2023-06-26T21:14:11.498Z,6.43
2023-06-26T21:16:38.394Z,5.28
2023-06-26T21:19:04.833Z,7.53
2023-06-26T21:21:31.289Z,6.60
2023-06-26T21:23:58.019Z,6.18
2023-06-26T21:26:24.485Z,6.95
2023-06-26T21:28:50.871Z,5.43
2023-06-26T21:31:19.845Z,8.38
2023-06-26T21:33:48.562Z,8.20
2023-06-26T21:36:17.503Z,8.27
2023-06-26T21:38:44.122Z,6.80
2023-06-26T21:41:10.510Z,6.82
2023-06-26T21:43:38.024Z,6.20
2023-06-26T21:46:06.666Z,6.53
2023-06-26T21:48:33.090Z,6.78
2023-06-26T21:50:59.533Z,6.25
2023-06-26T21:53:25.949Z,7.40
2023-06-26T21:55:52.393Z,7.65
2023-06-26T21:58:21.263Z,6.80
2023-06-26T22:00:50.885Z,7.05
2023-06-26T22:03:17.317Z,11.05
2023-06-26T22:05:44.812Z,9.30
2023-06-26T22:08:12.207Z,8.88
2023-06-26T22:10:40.800Z,9.43
2023-06-26T22:13:07.242Z,7.72
2023-06-26T22:15:33.655Z,9.13
2023-06-26T22:18:00.089Z,6.72
2023-06-26T22:20:27.368Z,8.10
2023-06-26T22:22:56.250Z,14.30
2023-06-26T22:25:23.052Z,8.93
2023-06-26T22:27:50.418Z,6.47
2023-06-26T22:30:20.627Z,9.20
2023-06-26T22:32:49.576Z,11.15
2023-06-26T22:35:16.366Z,7.55
2023-06-26T22:37:42.995Z,7.57
2023-06-26T22:40:13.548Z,7.97
2023-06-26T22:42:44.894Z,8.88
2023-06-26T22:45:12.187Z,8.13
2023-06-26T22:47:39.026Z,7.70
2023-06-26T22:50:07.169Z,8.90
2023-06-26T22:52:33.932Z,8.30
2023-06-26T22:55:00.994Z,6.35
2023-06-26T22:57:27.931Z,8.23
2023-06-26T22:59:54.312Z,7.05
2023-06-26T23:02:23.507Z,7.75
2023-06-26T23:04:50.221Z,7.20
2023-06-26T23:07:16.709Z,7.68
2023-06-26T23:09:43.469Z,9.05
2023-06-26T23:12:09.927Z,10.80
2023-06-26T23:14:38.754Z,5.00
2023-06-26T23:17:05.629Z,8.23
2023-06-26T23:19:33.113Z,8.85
2023-06-26T23:21:59.772Z,4.97
2023-06-26T23:24:33.282Z,6.78
2023-06-26T23:27:02.357Z,4.50
2023-06-26T23:29:28.845Z,7.43
2023-06-26T23:31:55.356Z,4.55
2023-06-26T23:34:27.179Z,6.25
2023-06-26T23:36:53.562Z,6.10
2023-06-26T23:39:20.227Z,9.65
2023-06-26T23:41:50.572Z,5.57
2023-06-26T23:44:19.690Z,5.32
2023-06-26T23:46:46.570Z,5.85
2023-06-26T23:49:13.225Z,13.02
2023-06-26T23:51:39.678Z,6.10
2023-06-26T23:54:06.126Z,7.07
2023-06-26T23:56:32.805Z,7.50
2023-06-26T23:58:59.563Z,5.82
